M I D A S
Marine Information and Data Acquisition System
Tripno 712 of the Zeeleeuw from 2004-05-05 06:36:16 to 2004-05-05 12:16:44
Back to CruiseResearch ActivitiesStationsMapUnderway DataData graphs

EquipmentUnitsComment
TimeDGPSUTC
LatitudeDGPSDM.mWGS84
LongitudeDGPSDM.mWGS84
HeadingGyrodeg 
SOGDGPSknotsSpeed over ground
COGDGPSdegCourse over ground
DepthEcho soundermeters200 kHz
Missing or incorrect values are displayed as -999
Navigation data collected by the RV Zeeleeuw from 2004-05-05 06:36:16 to 2004-05-05 12:16:44
                                                                                    Next 1000 lines
Time Latitude Longitude Heading SOG COG Depth
2004-05-05 06:36:24 51°13.605 2°56.06 116.8 3.3 295 -999
2004-05-05 06:36:29 51°13.607 2°56.053 116.8 3.6 294 -999
2004-05-05 06:36:33 51°13.609 2°56.046 116.8 3.8 294 -999
2004-05-05 06:36:38 51°13.611 2°56.038 116.8 3.9 294 -999
2004-05-05 06:36:43 51°13.614 2°56.03 116.8 4 293 -999
2004-05-05 06:36:48 51°13.616 2°56.021 116.8 4.3 293 -999
2004-05-05 06:36:53 51°13.619 2°56.012 116.8 4.3 293 -999
2004-05-05 06:36:58 51°13.621 2°56.003 116.8 4.4 294 -999
2004-05-05 06:37:02 51°13.623 2°55.996 117.2 4.5 294 -999
2004-05-05 06:37:08 51°13.626 2°55.985 117.8 4.6 294 -999
2004-05-05 06:37:13 51°13.629 2°55.975 118.1 4.7 294 -999
2004-05-05 06:37:18 51°13.632 2°55.965 118.1 4.8 294 -999
2004-05-05 06:37:24 51°13.635 2°55.953 117.6 4.9 294 -999
2004-05-05 06:37:28 51°13.637 2°55.945 117.2 5.1 293 -999
2004-05-05 06:37:32 51°13.64 2°55.937 116.7 5.2 293 -999
2004-05-05 06:37:38 51°13.643 2°55.924 116.1 5.3 293 -999
2004-05-05 06:37:44 51°13.646 2°55.911 115.6 5.3 292 -999
2004-05-05 06:37:48 51°13.648 2°55.902 115 5.4 291 -999
2004-05-05 06:37:53 51°13.651 2°55.891 113.9 5.4 292 -999
2004-05-05 06:37:58 51°13.654 2°55.88 112.6 5.4 291 -999
2004-05-05 06:38:02 51°13.656 2°55.871 111.2 5.4 289 -999
2004-05-05 06:38:08 51°13.659 2°55.857 109.8 5.3 288 -999
2004-05-05 06:38:13 51°13.661 2°55.846 108.2 5.3 288 -999
2004-05-05 06:38:18 51°13.663 2°55.835 106.6 5.3 286 -999
2004-05-05 06:38:24 51°13.665 2°55.821 104.5 5.3 285 -999
2004-05-05 06:38:28 51°13.666 2°55.812 102.1 5.3 280 -999
2004-05-05 06:38:33 51°13.667 2°55.8 99.4 5.3 278 -999
2004-05-05 06:38:38 51°13.667 2°55.789 96.5 5.3 275 -999
2004-05-05 06:38:43 51°13.668 2°55.778 93.3 5.2 273 -999
2004-05-05 06:38:48 51°13.667 2°55.767 90.5 4.6 268 -999
2004-05-05 06:38:53 51°13.667 2°55.759 87.7 3.9 265 -999
2004-05-05 06:38:58 51°13.667 2°55.754 84.1 2.9 264 -999
2004-05-05 06:39:03 51°13.667 2°55.752 80.1 1.7 265 8.2
2004-05-05 06:39:08 51°13.667 2°55.752 75.7 0.7 283 8.3
2004-05-05 06:39:13 51°13.668 2°55.753 70.7 0.8 35 8.5
2004-05-05 06:39:18 51°13.67 2°55.755 63.8 1.3 40 9
2004-05-05 06:39:23 51°13.672 2°55.758 56.9 1.7 41 9.3
2004-05-05 06:39:28 51°13.674 2°55.761 49.8 2 37 9.5
2004-05-05 06:39:33 51°13.677 2°55.763 43.2 2 29 10.1
2004-05-05 06:39:37 51°13.679 2°55.765 38.7 1.9 30 10.2
2004-05-05 06:39:42 51°13.68 2°55.766 36.4 1.4 28 10.8
2004-05-05 06:39:48 51°13.681 2°55.766 33.4 0.9 25 11.3
2004-05-05 06:39:52 51°13.681 2°55.766 30.4 0.1 321 11.3
2004-05-05 06:39:58 51°13.68 2°55.765 28.3 0.4 220 11.2
2004-05-05 06:40:03 51°13.679 2°55.764 27 0.8 213 10.7
2004-05-05 06:40:08 51°13.677 2°55.762 26 1.2 210 10.4
2004-05-05 06:40:13 51°13.675 2°55.761 25.2 1.3 209 -999
2004-05-05 06:40:18 51°13.675 2°55.76 24.6 1.1 215 -999
2004-05-05 06:40:22 51°13.675 2°55.76 23.9 0.5 239 -999
2004-05-05 06:40:28 51°13.677 2°55.759 19.9 1.4 351 -999
2004-05-05 06:40:32 51°13.679 2°55.759 12.8 2.1 354 -999
2004-05-05 06:40:38 51°13.684 2°55.757 4 2.8 349 -999
2004-05-05 06:40:42 51°13.688 2°55.755 354.5 3.4 344 12
2004-05-05 06:40:48 51°13.693 2°55.751 346.9 3.6 340 12.3
2004-05-05 06:40:52 51°13.697 2°55.748 340.7 3.5 331 11.6
2004-05-05 06:40:58 51°13.702 2°55.744 336.2 3.6 331 11.4
2004-05-05 06:41:02 51°13.706 2°55.74 334.2 4 330 11.2
2004-05-05 06:41:08 51°13.712 2°55.734 334 4.4 331 10.4
2004-05-05 06:41:13 51°13.719 2°55.729 335.5 5 333 9.6
2004-05-05 06:41:18 51°13.725 2°55.724 338 5.3 334 8.9
2004-05-05 06:41:22 51°13.731 2°55.72 339.3 5.6 336 8.5
2004-05-05 06:41:28 51°13.741 2°55.713 340.1 6 336 8.6
2004-05-05 06:41:32 51°13.748 2°55.708 340.4 6.7 336 8.1
2004-05-05 06:41:38 51°13.759 2°55.701 340.5 7 336 7.9
2004-05-05 06:41:42 51°13.766 2°55.695 340.2 7.3 335 7.9
2004-05-05 06:41:48 51°13.778 2°55.686 340.1 7.7 335 7.8
2004-05-05 06:41:52 51°13.786 2°55.681 340.3 8.1 335 5.7
2004-05-05 06:41:58 51°13.8 2°55.673 340.8 8.2 336 7.4
2004-05-05 06:42:02 51°13.809 2°55.668 341.4 8.4 337 7.4
2004-05-05 06:42:08 51°13.823 2°55.66 342.3 8.5 338 7.7
2004-05-05 06:42:12 51°13.832 2°55.655 344.2 8.7 342 7.4
2004-05-05 06:42:18 51°13.846 2°55.649 346.9 8.8 344 7.6
2004-05-05 06:42:23 51°13.857 2°55.644 349.8 8.9 348 6.5
2004-05-05 06:42:28 51°13.87 2°55.641 352.7 8.9 349 5.6
2004-05-05 06:42:33 51°13.882 2°55.638 355.1 9 351 6.2
2004-05-05 06:42:37 51°13.892 2°55.635 356.8 9 352 6.2
2004-05-05 06:42:42 51°13.904 2°55.632 357.8 9 352 7.1
2004-05-05 06:42:48 51°13.918 2°55.628 357.8 9 352 7.6
2004-05-05 06:42:52 51°13.928 2°55.626 357.3 8.8 351 7.9
2004-05-05 06:42:58 51°13.942 2°55.623 357.1 8.7 351 8.3
2004-05-05 06:43:02 51°13.952 2°55.62 357.7 8.6 352 9
2004-05-05 06:43:08 51°13.966 2°55.617 357.9 8.5 352 8.8
2004-05-05 06:43:12 51°13.975 2°55.614 357.2 8.3 350 8.7
2004-05-05 06:43:18 51°13.988 2°55.609 355.6 8 347 8.1
2004-05-05 06:43:23 51°13.998 2°55.604 352.1 7.7 344 5.3
2004-05-05 06:43:28 51°14.007 2°55.596 347 7.5 337 8.4
2004-05-05 06:43:33 51°14.015 2°55.588 340.6 7.3 329 8.3
2004-05-05 06:43:37 51°14.022 2°55.58 333.2 7.2 323 8.1
2004-05-05 06:43:42 51°14.029 2°55.569 326.1 7.1 317 8.4
2004-05-05 06:43:48 51°14.037 2°55.556 321.5 7.1 317 8.4
2004-05-05 06:43:52 51°14.043 2°55.547 319.3 7.3 315 8.2
2004-05-05 06:43:58 51°14.052 2°55.533 318.6 7.4 315 8.2
2004-05-05 06:44:02 51°14.058 2°55.524 318.7 7.6 315 8.6
2004-05-05 06:44:08 51°14.066 2°55.51 319.1 7.6 315 8.8
2004-05-05 06:44:12 51°14.072 2°55.5 319.3 7.5 315 9.2
2004-05-05 06:44:18 51°14.082 2°55.486 319.7 7.7 316 9
2004-05-05 06:44:22 51°14.088 2°55.476 321 8 318 9.2
2004-05-05 06:44:28 51°14.1 2°55.462 323.6 8.2 319 9.2
2004-05-05 06:44:32 51°14.107 2°55.453 326.3 8.8 324 9.5
2004-05-05 06:44:38 51°14.12 2°55.439 328.7 9.1 325 9.2
2004-05-05 06:44:42 51°14.129 2°55.43 330.9 9.3 326 9.2
2004-05-05 06:44:48 51°14.143 2°55.416 332.1 9.6 327 9.4
2004-05-05 06:44:53 51°14.154 2°55.404 331.8 9.9 326 9.2
2004-05-05 06:44:58 51°14.166 2°55.392 331 10.1 326 9.2
2004-05-05 06:45:02 51°14.175 2°55.382 330.9 10.3 326 9.2
2004-05-05 06:45:08 51°14.19 2°55.366 331 10.5 326 9.2
2004-05-05 06:45:12 51°14.2 2°55.355 331.3 10.8 326 9.1
2004-05-05 06:45:18 51°14.215 2°55.338 330.9 10.9 324 9.4
2004-05-05 06:45:22 51°14.224 2°55.325 329.4 11 321 9.1
2004-05-05 06:45:28 51°14.238 2°55.305 326.8 11.1 320 9.3
2004-05-05 06:45:33 51°14.249 2°55.288 324 11.2 316 9.1
2004-05-05 06:45:37 51°14.257 2°55.273 320.3 11.3 313 9.2
2004-05-05 06:45:43 51°14.27 2°55.251 317.9 11.4 312 9.1
2004-05-05 06:45:48 51°14.28 2°55.232 317.1 11.4 312 9.4
2004-05-05 06:45:52 51°14.289 2°55.216 316.4 11.5 311 9.3
2004-05-05 06:45:58 51°14.301 2°55.193 315.8 11.6 310 9.1
2004-05-05 06:46:02 51°14.309 2°55.177 315.3 11.6 309 9.1
2004-05-05 06:46:08 51°14.322 2°55.152 314.4 11.9 309 9.5
2004-05-05 06:46:12 51°14.33 2°55.136 314.2 12.1 310 9.2
2004-05-05 06:46:18 51°14.343 2°55.111 315.1 12.1 310 9.1
2004-05-05 06:46:23 51°14.354 2°55.091 315.7 12.3 310 8.8
2004-05-05 06:46:28 51°14.365 2°55.07 315.8 12.4 311 9
2004-05-05 06:46:33 51°14.377 2°55.048 315.8 12.7 310 9.3
2004-05-05 06:46:38 51°14.388 2°55.026 315.6 12.8 309 9.1
2004-05-05 06:46:42 51°14.396 2°55.007 314.8 13 307 9.2
2004-05-05 06:46:48 51°14.409 2°54.979 312.9 13.1 306 8.8
2004-05-05 06:46:53 51°14.419 2°54.954 311.4 13.3 303 8.9
2004-05-05 06:46:58 51°14.429 2°54.929 310.7 13.4 303 8.9
2004-05-05 06:47:02 51°14.436 2°54.908 309.3 13.4 300 8.6
2004-05-05 06:47:08 51°14.445 2°54.875 305.9 13.6 296 8.8
2004-05-05 06:47:13 51°14.451 2°54.846 301.9 13.7 289 8.8
2004-05-05 06:47:18 51°14.456 2°54.816 297.6 13.8 287 8.9
2004-05-05 06:47:22 51°14.46 2°54.792 293.7 14 284 8.8
2004-05-05 06:47:28 51°14.466 2°54.756 292.3 14.1 284 9.1
2004-05-05 06:47:32 51°14.469 2°54.732 292.2 14.1 284 8.8
2004-05-05 06:47:38 51°14.475 2°54.696 292.8 14.1 285 9.1
2004-05-05 06:47:42 51°14.479 2°54.672 293.5 14.1 284 8.7
2004-05-05 06:47:48 51°14.483 2°54.634 291 14.3 280 8.9
2004-05-05 06:47:52 51°14.485 2°54.61 288.5 13.8 277 8.7
2004-05-05 06:47:58 51°14.486 2°54.576 285.5 13.1 275 8.7
2004-05-05 06:48:03 51°14.487 2°54.549 282.6 12.7 273 8.8
2004-05-05 06:48:08 51°14.486 2°54.523 278.2 12.3 270 9.2
2004-05-05 06:48:13 51°14.484 2°54.499 273.5 11 263 8.9
2004-05-05 06:48:18 51°14.481 2°54.477 270 10.3 261 9
2004-05-05 06:48:23 51°14.479 2°54.456 267.3 9.6 261 9.2
2004-05-05 06:48:28 51°14.477 2°54.437 266.3 9.1 261 9.6
2004-05-05 06:48:33 51°14.475 2°54.419 266.4 8.4 262 9.3
2004-05-05 06:48:36 51°14.475 2°54.408 268 8.1 262 9.1
2004-05-05 06:48:42 51°14.473 2°54.388 269.3 7.7 264 9.1
2004-05-05 06:48:48 51°14.472 2°54.369 270.9 7.4 264 9.1
2004-05-05 06:48:52 51°14.472 2°54.357 272.3 6.8 266 9
2004-05-05 06:48:56 51°14.471 2°54.346 274.2 6.6 266 9.1
2004-05-05 06:49:02 51°14.471 2°54.329 275.5 6.5 268 9.1
2004-05-05 06:49:08 51°14.47 2°54.312 276.7 6.3 267 8.9
2004-05-05 06:49:12 51°14.47 2°54.302 277.6 6 270 8.9
2004-05-05 06:49:18 51°14.47 2°54.286 279.1 5.9 270 8.9
2004-05-05 06:49:22 51°14.471 2°54.276 280.7 5.7 272 8.8
2004-05-05 06:49:28 51°14.471 2°54.261 281.8 5.6 272 8.9
2004-05-05 06:49:32 51°14.472 2°54.252 283.3 5.4 274 8.7
2004-05-05 06:49:38 51°14.472 2°54.238 284.6 5.3 274 8.7
2004-05-05 06:49:42 51°14.473 2°54.229 285.9 5.1 276 8.8
2004-05-05 06:49:48 51°14.474 2°54.216 287.3 5.1 276 8.6
2004-05-05 06:49:52 51°14.474 2°54.207 288.6 4.9 278 8.5
2004-05-05 06:49:57 51°14.475 2°54.197 290.3 4.8 278 8.5
2004-05-05 06:50:00 51°14.476 2°54.191 291.1 4.7 278 8.5
2004-05-05 06:50:06 51°14.477 2°54.179 292.3 4.6 279 8.5
2004-05-05 06:50:12 51°14.478 2°54.167 293.2 4.5 280 8.5
2004-05-05 06:50:18 51°14.48 2°54.156 294.1 4.4 280 8.4
2004-05-05 06:50:22 51°14.481 2°54.148 294.7 4.3 281 8.4
2004-05-05 06:50:28 51°14.482 2°54.137 295.4 4.3 281 8.4
2004-05-05 06:50:32 51°14.483 2°54.13 295.8 4.2 282 8.4
2004-05-05 06:50:37 51°14.484 2°54.121 296.1 4.1 281 8.4
2004-05-05 06:50:42 51°14.485 2°54.112 296.4 4.1 282 8.5
2004-05-05 06:50:48 51°14.486 2°54.102 296.4 4 281 8.4
2004-05-05 06:50:52 51°14.487 2°54.095 296.2 3.9 281 8.5
2004-05-05 06:50:58 51°14.488 2°54.085 295.7 3.8 280 8.4
2004-05-05 06:51:02 51°14.489 2°54.079 295.1 3.8 280 8.5
2004-05-05 06:51:08 51°14.49 2°54.069 294.3 3.7 278 8.5
2004-05-05 06:51:13 51°14.491 2°54.061 293.9 3.6 278 8.4
2004-05-05 06:51:18 51°14.491 2°54.053 293.6 3.5 278 8.5
2004-05-05 06:51:22 51°14.492 2°54.047 293.6 3.5 278 8.5
2004-05-05 06:51:28 51°14.493 2°54.038 293.7 3.5 278 8.5
2004-05-05 06:51:33 51°14.493 2°54.031 293.9 3.3 278 8.5
2004-05-05 06:51:38 51°14.494 2°54.024 294.2 3.3 279 8.5
2004-05-05 06:51:42 51°14.494 2°54.018 294.6 3.3 278 8.5
2004-05-05 06:51:48 51°14.495 2°54.01 295 3.2 279 8.5
2004-05-05 06:51:52 51°14.496 2°54.004 295.1 3.1 279 8.5
2004-05-05 06:51:58 51°14.497 2°53.996 295.2 3.1 279 8.5
2004-05-05 06:52:02 51°14.497 2°53.991 295.2 3.1 279 8.5
2004-05-05 06:52:08 51°14.498 2°53.983 295 3 279 8.5
2004-05-05 06:52:13 51°14.499 2°53.976 294.6 3 278 8.5
2004-05-05 06:52:18 51°14.499 2°53.97 294.6 2.9 279 8.5
2004-05-05 06:52:22 51°14.499 2°53.965 294.6 2.9 277 8.6
2004-05-05 06:52:28 51°14.5 2°53.958 294.5 2.8 279 8.6
2004-05-05 06:52:33 51°14.501 2°53.952 294.6 2.7 277 8.6
2004-05-05 06:52:38 51°14.501 2°53.946 294.6 2.7 277 8.6
2004-05-05 06:52:43 51°14.501 2°53.94 294.7 2.7 276 8.6
2004-05-05 06:52:48 51°14.502 2°53.934 294.7 2.6 278 8.6
2004-05-05 06:52:53 51°14.502 2°53.928 294.9 2.6 278 8.6
2004-05-05 06:52:58 51°14.503 2°53.923 294.9 2.6 277 8.6
2004-05-05 06:53:02 51°14.503 2°53.918 295.3 2.6 278 8.6
2004-05-05 06:53:08 51°14.504 2°53.912 295.7 2.5 278 8.6
2004-05-05 06:53:12 51°14.504 2°53.907 296.3 2.5 281 8.6
2004-05-05 06:53:18 51°14.505 2°53.9 297.2 2.8 283 8.6
2004-05-05 06:53:23 51°14.506 2°53.893 299 3.2 283 8.6
2004-05-05 06:53:28 51°14.508 2°53.886 301.9 3.4 290 8.6
2004-05-05 06:53:32 51°14.51 2°53.879 307.4 3.9 296 8.6
2004-05-05 06:53:38 51°14.514 2°53.87 313.7 4.1 303 8.6
2004-05-05 06:53:42 51°14.517 2°53.864 320.3 4.4 305 8.6
2004-05-05 06:53:48 51°14.523 2°53.855 324.4 4.6 312 8.6
2004-05-05 06:53:52 51°14.527 2°53.849 328.9 4.9 318 8.6
2004-05-05 06:53:58 51°14.534 2°53.841 334.5 5.1 322 8.6
2004-05-05 06:54:02 51°14.539 2°53.835 338.9 5.5 326 8.6
2004-05-05 06:54:08 51°14.549 2°53.827 343 6.4 330 8.6
2004-05-05 06:54:13 51°14.558 2°53.82 345.8 7.2 334 8.6
2004-05-05 06:54:18 51°14.568 2°53.812 346.9 7.8 332 8.5
2004-05-05 06:54:23 51°14.579 2°53.802 345.3 8.3 333 8.5
2004-05-05 06:54:28 51°14.591 2°53.793 343.3 9.3 331 8.6
2004-05-05 06:54:33 51°14.603 2°53.782 343 10.2 333 8.5
2004-05-05 06:54:38 51°14.617 2°53.772 343.8 10.7 334 8.5
2004-05-05 06:54:42 51°14.629 2°53.764 344.5 11.1 335 8.3
2004-05-05 06:54:48 51°14.646 2°53.752 346 11.4 336 8.4
2004-05-05 06:54:53 51°14.662 2°53.742 347.3 11.9 338 8.5
2004-05-05 06:54:58 51°14.678 2°53.732 348 12.1 338 8.6
2004-05-05 06:55:02 51°14.691 2°53.724 348.3 12.3 339 8.7
2004-05-05 06:55:08 51°14.71 2°53.712 348.3 12.5 338 8.6
2004-05-05 06:55:12 51°14.723 2°53.703 347.8 12.7 336 8.7
2004-05-05 06:55:18 51°14.742 2°53.689 346.3 12.8 336 8.6
2004-05-05 06:55:22 51°14.755 2°53.679 345.6 12.9 336 8.7
2004-05-05 06:55:28 51°14.775 2°53.665 345.4 12.9 336 8.5
2004-05-05 06:55:32 51°14.788 2°53.656 345.9 12.9 336 8.5
2004-05-05 06:55:38 51°14.808 2°53.642 346.2 13 336 8.5
2004-05-05 06:55:43 51°14.824 2°53.63 345.7 13 335 8.4
2004-05-05 06:55:48 51°14.84 2°53.617 345.1 13 335 8.3
2004-05-05 06:55:52 51°14.853 2°53.607 344.7 13 334 8.2
2004-05-05 06:55:58 51°14.873 2°53.592 344.6 13 334 8.1
2004-05-05 06:56:02 51°14.886 2°53.582 344 12.9 333 8.1
2004-05-05 06:56:08 51°14.905 2°53.566 343.6 12.9 333 8
2004-05-05 06:56:13 51°14.92 2°53.553 343.3 12.9 333 8
2004-05-05 06:56:18 51°14.937 2°53.541 343.1 12.9 334 8
2004-05-05 06:56:23 51°14.953 2°53.529 344 12.9 335 8.1
2004-05-05 06:56:28 51°14.97 2°53.518 345 12.9 337 8.2
2004-05-05 06:56:33 51°14.986 2°53.508 346.9 13 340 8.1
2004-05-05 06:56:38 51°15.004 2°53.5 349.6 12.9 342 8.2
2004-05-05 06:56:41 51°15.014 2°53.496 352.7 12.9 345 8.1
2004-05-05 06:56:48 51°15.038 2°53.487 355.2 12.8 347 8
2004-05-05 06:56:53 51°15.056 2°53.481 357 12.8 348 8.1
2004-05-05 06:56:58 51°15.073 2°53.475 358 12.7 348 8
2004-05-05 06:57:02 51°15.087 2°53.471 358.6 12.7 349 8
2004-05-05 06:57:08 51°15.107 2°53.464 358.8 12.7 348 8
2004-05-05 06:57:13 51°15.125 2°53.458 358.7 12.8 347 8
2004-05-05 06:57:17 51°15.138 2°53.453 357.8 12.8 347 8
2004-05-05 06:57:20 51°15.149 2°53.448 356.6 12.8 345 8.1
2004-05-05 06:57:28 51°15.176 2°53.433 354.1 12.8 342 8.1
2004-05-05 06:57:32 51°15.189 2°53.424 351.9 13 339 8.1
2004-05-05 06:57:38 51°15.209 2°53.411 349.8 13 338 8.2
2004-05-05 06:57:42 51°15.222 2°53.402 348 13 336 8.2
2004-05-05 06:57:48 51°15.242 2°53.388 347 13.1 336 8.3
2004-05-05 06:57:52 51°15.255 2°53.378 346.5 13.1 335 8.3
2004-05-05 06:57:58 51°15.275 2°53.363 346.1 13.2 336 8.3
2004-05-05 06:58:03 51°15.292 2°53.352 346.7 13.2 337 8.3
2004-05-05 06:58:08 51°15.309 2°53.341 347.3 13.2 337 8.5
2004-05-05 06:58:13 51°15.326 2°53.331 348.6 13.3 339 8.6
2004-05-05 06:58:17 51°15.34 2°53.324 350 13.3 341 8.6
2004-05-05 06:58:21 51°15.354 2°53.316 351.4 13.2 341 8.7
2004-05-05 06:58:28 51°15.378 2°53.304 352.5 13.2 342 8.7
2004-05-05 06:58:32 51°15.392 2°53.297 353.2 13.2 342 8.9
2004-05-05 06:58:38 51°15.413 2°53.285 353.3 13.2 342 8.9
2004-05-05 06:58:42 51°15.427 2°53.277 352.6 13.3 341 9
2004-05-05 06:58:48 51°15.448 2°53.265 351.6 13.4 340 9.3
2004-05-05 06:58:53 51°15.465 2°53.254 350.7 13.5 339 9.1
2004-05-05 06:58:58 51°15.483 2°53.243 349.8 13.5 338 9.2
2004-05-05 06:59:02 51°15.497 2°53.234 349.4 13.5 338 9.3
2004-05-05 06:59:08 51°15.517 2°53.22 348.8 13.4 338 9.2
2004-05-05 06:59:13 51°15.535 2°53.209 348.4 13.4 338 9.3
2004-05-05 06:59:18 51°15.552 2°53.198 348.8 13.4 338 9.4
2004-05-05 06:59:22 51°15.566 2°53.19 349.1 13.4 338 9.4
2004-05-05 06:59:28 51°15.586 2°53.177 349.7 13.4 339 9.5
2004-05-05 06:59:33 51°15.604 2°53.167 350.3 13.4 340 9.6
2004-05-05 06:59:38 51°15.621 2°53.157 350.9 13.4 340 9.6
2004-05-05 06:59:42 51°15.635 2°53.149 351.2 13.4 340 9.6
2004-05-05 06:59:48 51°15.656 2°53.137 351.4 13.4 340 9.6
2004-05-05 06:59:53 51°15.674 2°53.127 351.3 13.4 340 9.7
2004-05-05 06:59:58 51°15.691 2°53.116 350.7 13.4 338 9.8
2004-05-05 07:00:02 51°15.705 2°53.107 349.9 13.4 339 9.9
2004-05-05 07:00:08 51°15.726 2°53.094 349.6 13.4 338 9.8
2004-05-05 07:00:12 51°15.739 2°53.085 349.1 13.5 337 9.9
2004-05-05 07:00:18 51°15.76 2°53.071 348.8 13.4 338 9.9
2004-05-05 07:00:22 51°15.774 2°53.062 348.8 13.4 338 10
2004-05-05 07:00:28 51°15.795 2°53.048 348.5 13.5 337 10.1
2004-05-05 07:00:32 51°15.808 2°53.039 348.5 13.4 338 10.1
2004-05-05 07:00:38 51°15.829 2°53.025 348.9 13.4 338 10.1
2004-05-05 07:00:42 51°15.843 2°53.016 348.7 13.4 337 10.2
2004-05-05 07:00:48 51°15.863 2°53.003 348.4 13.4 337 10.2
2004-05-05 07:00:53 51°15.88 2°52.992 348.5 13.4 338 10.4
2004-05-05 07:00:58 51°15.897 2°52.98 349 13.4 338 10.3
2004-05-05 07:01:02 51°15.911 2°52.971 349.2 13.4 338 10.3
2004-05-05 07:01:08 51°15.932 2°52.957 349.3 13.4 337 10.4
2004-05-05 07:01:13 51°15.949 2°52.946 348.8 13.4 337 10.4
2004-05-05 07:01:18 51°15.966 2°52.934 348.7 13.4 337 10.5
2004-05-05 07:01:20 51°15.973 2°52.93 349 13.4 337 10.5
2004-05-05 07:01:28 51°16 2°52.911 348.9 13.4 337 10.5
2004-05-05 07:01:33 51°16.017 2°52.9 349 13.4 337 10.5
2004-05-05 07:01:37 51°16.031 2°52.89 348.9 13.4 337 10.6
2004-05-05 07:01:41 51°16.045 2°52.881 349 13.4 337 10.7
2004-05-05 07:01:48 51°16.069 2°52.866 349.1 13.4 338 10.7
2004-05-05 07:01:53 51°16.086 2°52.854 349.2 13.4 337 10.7
2004-05-05 07:01:58 51°16.103 2°52.843 349.2 13.4 337 10.8
2004-05-05 07:02:02 51°16.117 2°52.834 349.1 13.4 337 10.8
2004-05-05 07:02:08 51°16.137 2°52.82 349.2 13.4 338 10.8
2004-05-05 07:02:13 51°16.155 2°52.808 349.2 13.4 337 10.8
2004-05-05 07:02:17 51°16.169 2°52.8 348.9 13.4 337 10.9
2004-05-05 07:02:21 51°16.182 2°52.791 349.2 13.4 338 10.8
2004-05-05 07:02:28 51°16.206 2°52.776 349.5 13.3 339 10.8
2004-05-05 07:02:33 51°16.224 2°52.765 350.3 13.4 339 10.8
2004-05-05 07:02:38 51°16.241 2°52.755 350.9 13.3 340 10.8
2004-05-05 07:02:42 51°16.255 2°52.748 351.2 13.3 340 10.8
2004-05-05 07:02:48 51°16.276 2°52.735 351.7 13.3 340 10.8
2004-05-05 07:02:53 51°16.293 2°52.726 351.9 13.3 341 10.8
2004-05-05 07:02:58 51°16.311 2°52.716 351.9 13.3 341 10.8
2004-05-05 07:03:02 51°16.324 2°52.708 352 13.2 340 10.8
2004-05-05 07:03:08 51°16.345 2°52.696 351.8 13.2 340 10.8
2004-05-05 07:03:13 51°16.362 2°52.686 351.2 13.3 340 10.8
2004-05-05 07:03:18 51°16.38 2°52.675 351.2 13.3 339 10.8
2004-05-05 07:03:22 51°16.393 2°52.668 351 13.3 341 10.7
2004-05-05 07:03:28 51°16.414 2°52.656 351.1 13.3 340 10.6
2004-05-05 07:03:33 51°16.432 2°52.646 351 13.3 341 10.5
2004-05-05 07:03:38 51°16.449 2°52.636 351.4 13.3 341 10.4
2004-05-05 07:03:42 51°16.463 2°52.629 351.4 13.2 342 10.4
2004-05-05 07:03:48 51°16.484 2°52.618 352.1 13.3 341 10.3
2004-05-05 07:03:53 51°16.501 2°52.609 351.8 13.2 342 10.3
2004-05-05 07:03:58 51°16.519 2°52.6 352.2 13.2 341 10.1
2004-05-05 07:04:02 51°16.533 2°52.592 352 13.2 342 10.1
2004-05-05 07:04:08 51°16.553 2°52.581 351.6 13.2 341 10
2004-05-05 07:04:13 51°16.571 2°52.572 351.6 13.2 342 9.9
2004-05-05 07:04:18 51°16.588 2°52.564 351.7 13.2 342 9.7
2004-05-05 07:04:22 51°16.602 2°52.557 351.8 13.1 343 9.7
2004-05-05 07:04:28 51°16.623 2°52.547 352 13.1 343 9.6
2004-05-05 07:04:33 51°16.64 2°52.539 352.3 13 343 9.3
2004-05-05 07:04:38 51°16.658 2°52.53 352.4 13 343 9.1
2004-05-05 07:04:42 51°16.671 2°52.523 352.1 13 342 9.1
2004-05-05 07:04:48 51°16.692 2°52.512 351.2 12.9 342 8.9
2004-05-05 07:04:53 51°16.708 2°52.503 350.7 12.8 341 8.5
2004-05-05 07:04:58 51°16.725 2°52.494 350.2 12.7 341 7.9
2004-05-05 07:05:01 51°16.735 2°52.488 350.5 12.6 341 8
2004-05-05 07:05:08 51°16.758 2°52.476 350.3 12.4 342 8.1
2004-05-05 07:05:13 51°16.774 2°52.468 350.6 12.4 342 8.4
2004-05-05 07:05:18 51°16.79 2°52.459 350.7 12.5 342 8.3
2004-05-05 07:05:22 51°16.804 2°52.453 351.5 12.7 343 8.3
2004-05-05 07:05:28 51°16.824 2°52.442 351.9 12.8 342 8.4
2004-05-05 07:05:33 51°16.841 2°52.434 351.5 12.7 343 8.5
2004-05-05 07:05:38 51°16.858 2°52.424 351.3 12.8 342 8.4
2004-05-05 07:05:42 51°16.871 2°52.418 350.6 12.8 341 8.2
2004-05-05 07:05:48 51°16.891 2°52.407 350.8 12.6 342 8.1
2004-05-05 07:05:53 51°16.908 2°52.398 351.2 12.6 342 7.9
2004-05-05 07:05:58 51°16.924 2°52.39 351.2 12.6 343 7.8
2004-05-05 07:06:02 51°16.938 2°52.384 351.5 12.5 342 7.8
2004-05-05 07:06:08 51°16.957 2°52.374 352 12.4 342 7.9
2004-05-05 07:06:13 51°16.974 2°52.367 352 12.5 344 7.8
2004-05-05 07:06:18 51°16.991 2°52.359 353.5 12.5 345 7.9
2004-05-05 07:06:22 51°17.004 2°52.354 354.3 12.6 344 8.1
2004-05-05 07:06:28 51°17.025 2°52.344 353.7 12.6 344 8
2004-05-05 07:06:33 51°17.042 2°52.336 353.2 12.7 343 8.1
2004-05-05 07:06:38 51°17.058 2°52.327 352.3 12.7 342 8.3
2004-05-05 07:06:41 51°17.069 2°52.322 351.5 12.7 342 8.3
2004-05-05 07:06:48 51°17.092 2°52.308 350.7 12.8 340 8.2
2004-05-05 07:06:53 51°17.108 2°52.298 349.6 12.8 339 8.4
2004-05-05 07:06:56 51°17.118 2°52.292 348.8 12.9 338 8.2
2004-05-05 07:07:01 51°17.135 2°52.282 348.5 12.9 340 8.4
2004-05-05 07:07:08 51°17.159 2°52.267 349 12.9 338 8.7
2004-05-05 07:07:13 51°17.175 2°52.258 349 12.9 341 8.6
2004-05-05 07:07:18 51°17.192 2°52.249 350.1 12.9 341 8.6
2004-05-05 07:07:22 51°17.206 2°52.242 351.1 12.8 342 8.6
2004-05-05 07:07:28 51°17.226 2°52.232 351.9 12.9 342 8.8
2004-05-05 07:07:33 51°17.243 2°52.224 352.4 12.9 344 8.7
2004-05-05 07:07:37 51°17.257 2°52.218 353.5 12.9 343 8.8
2004-05-05 07:07:42 51°17.274 2°52.21 353.4 12.9 343 8.8
2004-05-05 07:07:48 51°17.295 2°52.199 353.3 12.9 342 8.9
2004-05-05 07:07:53 51°17.312 2°52.19 352.3 13 341 8.9
2004-05-05 07:07:57 51°17.325 2°52.181 350.6 13 339 8.8
2004-05-05 07:08:02 51°17.341 2°52.169 348.8 12.9 337 9
2004-05-05 07:08:08 51°17.361 2°52.155 346.8 12.9 336 8.8
2004-05-05 07:08:12 51°17.374 2°52.144 345.4 13 333 9
2004-05-05 07:08:18 51°17.392 2°52.127 343.3 13 331 8.9
2004-05-05 07:08:22 51°17.405 2°52.115 341.1 12.9 330 8.9
2004-05-05 07:08:28 51°17.423 2°52.097 339.7 13 328 8.9
2004-05-05 07:08:32 51°17.435 2°52.085 338.7 13.1 328 8.9
2004-05-05 07:08:37 51°17.45 2°52.069 338.3 13.1 327 8.9
2004-05-05 07:08:42 51°17.466 2°52.053 337.5 13 327 9
2004-05-05 07:08:48 51°17.484 2°52.034 337.4 13.1 327 8.9
2004-05-05 07:08:53 51°17.499 2°52.019 337.3 13 327 9
2004-05-05 07:08:58 51°17.514 2°52.003 337.4 13 328 8.8
2004-05-05 07:09:01 51°17.523 2°51.994 338.2 13 328 8.8
2004-05-05 07:09:08 51°17.545 2°51.973 338.8 13.1 328 9
2004-05-05 07:09:13 51°17.56 2°51.958 339.1 13 329 8.9
2004-05-05 07:09:18 51°17.575 2°51.942 339.4 13 329 9
2004-05-05 07:09:22 51°17.587 2°51.931 338.8 13 328 8.9
2004-05-05 07:09:28 51°17.605 2°51.912 339.2 12.9 329 8.9
2004-05-05 07:09:32 51°17.618 2°51.901 339.1 13 328 9
2004-05-05 07:09:38 51°17.636 2°51.882 338.7 13.1 327 8.9
2004-05-05 07:09:42 51°17.648 2°51.87 338.3 13 329 8.5
2004-05-05 07:09:48 51°17.667 2°51.852 338.7 13 328 8.6
2004-05-05 07:09:53 51°17.682 2°51.836 337.9 13 327 8.6
2004-05-05 07:09:58 51°17.697 2°51.821 337.8 13 328 8.7
2004-05-05 07:10:02 51°17.709 2°51.808 338 13 327 8.6
2004-05-05 07:10:08 51°17.728 2°51.79 338.6 13 328 8.7
2004-05-05 07:10:13 51°17.743 2°51.775 338.9 13.1 328 8.6
2004-05-05 07:10:16 51°17.752 2°51.767 338.9 13 329 8.6
2004-05-05 07:10:21 51°17.768 2°51.752 339.4 13 329 8.6
2004-05-05 07:10:28 51°17.789 2°51.731 339.5 13 329 8.6
2004-05-05 07:10:33 51°17.805 2°51.716 338.9 13 329 8.6
2004-05-05 07:10:38 51°17.82 2°51.701 339 13 328 8.6
2004-05-05 07:10:42 51°17.832 2°51.688 338.4 13.1 327 8.6
2004-05-05 07:10:48 51°17.85 2°51.669 337.6 13.1 327 8.6
2004-05-05 07:10:52 51°17.862 2°51.656 337.3 13.1 327 8.7
2004-05-05 07:10:58 51°17.881 2°51.637 337.6 13.1 327 8.6
2004-05-05 07:11:01 51°17.89 2°51.628 337.6 13.2 327 8.7
2004-05-05 07:11:08 51°17.912 2°51.606 338.2 13.2 328 8.8
2004-05-05 07:11:12 51°17.925 2°51.595 339.2 13.3 329 8.9
2004-05-05 07:11:18 51°17.944 2°51.577 339.4 13.3 329 9
2004-05-05 07:11:22 51°17.957 2°51.566 340.4 13.2 330 9.1
2004-05-05 07:11:28 51°17.976 2°51.548 341.1 13.3 329 9.2
2004-05-05 07:11:32 51°17.989 2°51.536 341 13.4 329 9.1
2004-05-05 07:11:36 51°18.002 2°51.524 340.7 13.4 330 9.3
2004-05-05 07:11:42 51°18.021 2°51.505 340.1 13.5 328 9.4
2004-05-05 07:11:47 51°18.036 2°51.489 338.9 13.4 328 9.4
2004-05-05 07:11:53 51°18.056 2°51.47 338.4 13.5 327 9.4
2004-05-05 07:11:58 51°18.071 2°51.454 337.9 13.6 327 9.8
2004-05-05 07:12:02 51°18.084 2°51.441 338.1 13.6 328 9.8
2004-05-05 07:12:08 51°18.103 2°51.422 338.2 13.6 328 9.9
2004-05-05 07:12:13 51°18.12 2°51.407 338.6 13.6 329 10
2004-05-05 07:12:17 51°18.132 2°51.394 339 13.6 328 10.2
2004-05-05 07:12:22 51°18.149 2°51.378 339.6 13.6 329 10.2
2004-05-05 07:12:25 51°18.158 2°51.369 339.5 13.6 328 10.3
2004-05-05 07:12:33 51°18.184 2°51.343 339.4 13.7 329 10.6
2004-05-05 07:12:38 51°18.2 2°51.327 339.3 13.7 328 10.6
2004-05-05 07:12:42 51°18.213 2°51.315 339.3 13.6 329 10.8
2004-05-05 07:12:48 51°18.232 2°51.296 339.5 13.7 328 10.9
2004-05-05 07:12:52 51°18.245 2°51.283 339 13.6 328 11
2004-05-05 07:12:58 51°18.265 2°51.264 338.9 13.6 328 11.1
2004-05-05 07:13:02 51°18.277 2°51.251 338.9 13.6 329 11.3
2004-05-05 07:13:08 51°18.296 2°51.231 338.2 13.6 327 11.3
2004-05-05 07:13:13 51°18.312 2°51.215 338.4 13.5 328 11.4
2004-05-05 07:13:17 51°18.325 2°51.203 338.5 13.6 327 11.5
2004-05-05 07:13:22 51°18.341 2°51.187 338.9 13.6 328 11.6
2004-05-05 07:13:28 51°18.36 2°51.168 339.2 13.6 328 11.7
2004-05-05 07:13:32 51°18.373 2°51.155 338.9 13.5 327 11.8
2004-05-05 07:13:37 51°18.389 2°51.139 338.5 13.5 328 11.9
2004-05-05 07:13:42 51°18.405 2°51.123 339 13.6 328 12
2004-05-05 07:13:48 51°18.424 2°51.104 338.9 13.6 327 12
2004-05-05 07:13:52 51°18.437 2°51.091 339.1 13.6 328 12.1
2004-05-05 07:13:58 51°18.456 2°51.071 338.8 13.7 328 12.2
2004-05-05 07:14:02 51°18.468 2°51.058 338.9 13.7 327 12.2
2004-05-05 07:14:08 51°18.487 2°51.039 338.9 13.6 328 12.3
2004-05-05 07:14:13 51°18.504 2°51.023 339.4 13.6 328 12.4
2004-05-05 07:14:18 51°18.52 2°51.008 339.5 13.6 328 12.4
2004-05-05 07:14:22 51°18.533 2°50.995 340.2 13.6 329 12.5
2004-05-05 07:14:28 51°18.552 2°50.976 339.4 13.6 327 12.6
2004-05-05 07:14:33 51°18.567 2°50.959 339 13.5 328 12.6
2004-05-05 07:14:38 51°18.583 2°50.943 339.5 13.5 327 12.7
2004-05-05 07:14:42 51°18.596 2°50.93 339.4 13.6 328 12.7
2004-05-05 07:14:48 51°18.615 2°50.91 339.1 13.6 328 12.8
2004-05-05 07:14:53 51°18.631 2°50.895 339 13.6 328 12.7
2004-05-05 07:14:58 51°18.647 2°50.878 338.9 13.7 326 12.8
2004-05-05 07:15:02 51°18.66 2°50.866 339.3 13.5 328 13
2004-05-05 07:15:07 51°18.676 2°50.85 339.4 13.6 327 13.1
2004-05-05 07:15:13 51°18.695 2°50.832 340.3 13.5 330 13
2004-05-05 07:15:18 51°18.711 2°50.816 340.7 13.5 328 13.1
2004-05-05 07:15:22 51°18.724 2°50.803 339.6 13.5 328 13.1
2004-05-05 07:15:28 51°18.743 2°50.783 339.7 13.6 327 13.1
2004-05-05 07:15:33 51°18.759 2°50.766 338.7 13.6 326 13.1
2004-05-05 07:15:38 51°18.774 2°50.75 337.7 13.6 326 13.2
2004-05-05 07:15:42 51°18.787 2°50.736 338.4 13.7 326 13.3
2004-05-05 07:15:48 51°18.805 2°50.715 337.7 13.8 325 13.3
2004-05-05 07:15:53 51°18.821 2°50.698 337.8 13.7 327 13.3
2004-05-05 07:15:58 51°18.837 2°50.681 338.2 13.7 326 13.3
2004-05-05 07:16:02 51°18.849 2°50.669 338.4 13.6 328 13.3
2004-05-05 07:16:08 51°18.868 2°50.649 339.1 13.6 328 13.3
2004-05-05 07:16:12 51°18.881 2°50.636 338.9 13.5 328 13.2
2004-05-05 07:16:17 51°18.897 2°50.621 340 13.5 329 13.1
2004-05-05 07:16:22 51°18.913 2°50.604 339.7 13.7 327 13.2
2004-05-05 07:16:28 51°18.932 2°50.585 339.6 13.6 328 13.1
2004-05-05 07:16:33 51°18.948 2°50.569 338.9 13.5 328 13.1
2004-05-05 07:16:38 51°18.964 2°50.552 339 13.6 326 13
2004-05-05 07:16:42 51°18.977 2°50.54 339.3 13.6 329 13
2004-05-05 07:16:48 51°18.996 2°50.52 339.2 13.7 327 12.9
2004-05-05 07:16:53 51°19.012 2°50.504 339.6 13.6 329 12.6
2004-05-05 07:16:58 51°19.028 2°50.487 339.5 13.6 326 12.7
2004-05-05 07:17:02 51°19.041 2°50.475 339.5 13.6 329 12.5
2004-05-05 07:17:08 51°19.06 2°50.456 339.4 13.7 327 12.3
2004-05-05 07:17:13 51°19.076 2°50.439 339.1 13.6 328 12.2
2004-05-05 07:17:18 51°19.092 2°50.423 339.3 13.5 327 12.1
2004-05-05 07:17:22 51°19.104 2°50.412 338.9 13.4 330 11.9
2004-05-05 07:17:28 51°19.124 2°50.392 339.9 13.5 329 11.8
2004-05-05 07:17:32 51°19.137 2°50.379 339.3 13.6 329 11.7
2004-05-05 07:17:38 51°19.155 2°50.36 339.6 13.7 328 11.3
2004-05-05 07:17:42 51°19.168 2°50.347 338.8 13.5 328 11.5
2004-05-05 07:17:48 51°19.187 2°50.327 338.9 13.6 328 11.2
2004-05-05 07:17:53 51°19.203 2°50.312 338.9 13.6 329 11.1
2004-05-05 07:17:58 51°19.219 2°50.295 339.2 13.6 328 11
2004-05-05 07:18:02 51°19.232 2°50.283 339.5 13.5 329 11
2004-05-05 07:18:08 51°19.251 2°50.264 339.6 13.5 328 10.9
2004-05-05 07:18:13 51°19.267 2°50.249 339.7 13.5 330 10.6
2004-05-05 07:18:18 51°19.283 2°50.233 339.7 13.5 328 10.5
2004-05-05 07:18:22 51°19.296 2°50.22 340.2 13.4 329 10.4
2004-05-05 07:18:28 51°19.314 2°50.2 339.2 13.5 327 10.8
2004-05-05 07:18:33 51°19.329 2°50.18 336.7 13.7 322 10.2
2004-05-05 07:18:38 51°19.343 2°50.16 332.5 13.7 319 10.1
2004-05-05 07:18:42 51°19.354 2°50.144 329.5 13.6 318 10.1
2004-05-05 07:18:48 51°19.371 2°50.119 327.3 13.6 317 10.1
2004-05-05 07:18:53 51°19.384 2°50.098 327 13.8 316 9.9
2004-05-05 07:18:58 51°19.398 2°50.076 326.4 13.8 316 9.8
2004-05-05 07:19:02 51°19.409 2°50.059 325.9 13.7 316 9.8
2004-05-05 07:19:08 51°19.425 2°50.034 326.2 13.8 315 10.1
2004-05-05 07:19:12 51°19.436 2°50.017 325.9 13.8 316 10.7
2004-05-05 07:19:18 51°19.453 2°49.991 325.9 13.9 316 11.1
2004-05-05 07:19:22 51°19.464 2°49.973 326.1 14.2 316 11.5
2004-05-05 07:19:28 51°19.481 2°49.947 326.1 14.1 316 11.7
2004-05-05 07:19:33 51°19.496 2°49.925 325.8 14.3 316 12
2004-05-05 07:19:38 51°19.51 2°49.903 326.1 14.3 316 12.2
2004-05-05 07:19:41 51°19.518 2°49.89 326.1 14.3 315 12.2
2004-05-05 07:19:48 51°19.537 2°49.857 325.4 14.2 315 12.4
2004-05-05 07:19:53 51°19.549 2°49.833 322.8 14.2 310 12.5
2004-05-05 07:19:58 51°19.561 2°49.809 320.2 14.2 310 12.4
2004-05-05 07:20:02 51°19.571 2°49.789 318.9 14.2 308 12.5
2004-05-05 07:20:08 51°19.585 2°49.759 318.3 14.2 308 12.5
2004-05-05 07:20:13 51°19.597 2°49.734 317.2 14.1 307 12.6
2004-05-05 07:20:18 51°19.608 2°49.708 316.9 14.2 306 12.8
2004-05-05 07:20:21 51°19.616 2°49.693 316.4 14.1 306 12.9
2004-05-05 07:20:28 51°19.632 2°49.657 316.5 14.2 307 13.4
2004-05-05 07:20:33 51°19.643 2°49.632 316.4 14.2 306 13.5
2004-05-05 07:20:38 51°19.654 2°49.606 316 14.2 304 14.1
2004-05-05 07:20:42 51°19.663 2°49.586 315.5 14.1 305 14.2
2004-05-05 07:20:46 51°19.67 2°49.563 312.1 14.3 297 14.4
2004-05-05 07:20:53 51°19.682 2°49.523 307.8 14.3 296 14.4
2004-05-05 07:20:58 51°19.689 2°49.494 304.5 14.3 293 14.6
2004-05-05 07:21:02 51°19.695 2°49.47 302.4 14.3 292 14.6
2004-05-05 07:21:08 51°19.704 2°49.434 299.8 14.4 290 14.8
2004-05-05 07:21:12 51°19.709 2°49.41 299.7 14.4 289 15.1
2004-05-05 07:21:16 51°19.714 2°49.386 298.3 14.4 288 15.4
2004-05-05 07:21:22 51°19.721 2°49.35 297.3 14.5 288 15.8
2004-05-05 07:21:28 51°19.729 2°49.313 297.5 14.5 288 16.4
2004-05-05 07:21:32 51°19.734 2°49.289 297 14.5 287 16.1
2004-05-05 07:21:37 51°19.74 2°49.258 296.7 14.5 287 16.4
2004-05-05 07:21:42 51°19.745 2°49.227 296.1 14.5 287 16.5
2004-05-05 07:21:46 51°19.748 2°49.202 293.3 14.5 284 16.5
2004-05-05 07:21:53 51°19.754 2°49.158 291.4 14.5 282 16.7
2004-05-05 07:21:56 51°19.756 2°49.139 290.4 14.7 281 16.9
2004-05-05 07:22:02 51°19.76 2°49.1 289 14.7 279 17.1
2004-05-05 07:22:08 51°19.764 2°49.062 287.6 14.7 279 17.3
2004-05-05 07:22:12 51°19.766 2°49.036 287.4 14.8 278 17.5
2004-05-05 07:22:18 51°19.77 2°48.997 286.5 14.8 278 17.6
2004-05-05 07:22:22 51°19.772 2°48.972 286.5 14.7 279 17.8
2004-05-05 07:22:26 51°19.775 2°48.946 286.9 14.7 280 18
2004-05-05 07:22:33 51°19.779 2°48.901 287.3 14.7 279 18.1
2004-05-05 07:22:38 51°19.783 2°48.87 288 14.7 281 18.3
2004-05-05 07:22:42 51°19.785 2°48.844 288.3 14.7 279 18.5
2004-05-05 07:22:48 51°19.789 2°48.805 287.8 14.7 279 18.7
2004-05-05 07:22:53 51°19.792 2°48.773 287.4 14.8 278 18.8
2004-05-05 07:22:58 51°19.795 2°48.741 287 14.7 280 19
2004-05-05 07:23:02 51°19.798 2°48.715 287.6 14.7 279 19.3
2004-05-05 07:23:08 51°19.802 2°48.677 287.6 14.8 279 19.5
2004-05-05 07:23:13 51°19.806 2°48.645 287.9 14.7 280 19.7
2004-05-05 07:23:16 51°19.807 2°48.625 288.2 14.7 279 19.7
2004-05-05 07:23:21 51°19.811 2°48.593 288.8 14.7 281 19.9
2004-05-05 07:23:28 51°19.816 2°48.548 288.4 14.8 279 20.1
2004-05-05 07:23:33 51°19.819 2°48.516 288.3 14.9 279 20.2
2004-05-05 07:23:38 51°19.822 2°48.483 288.3 14.8 279 20.4
2004-05-05 07:23:41 51°19.824 2°48.464 287.7 14.8 279 20.6
2004-05-05 07:23:48 51°19.829 2°48.419 288.1 14.9 280 20.7
2004-05-05 07:23:52 51°19.832 2°48.393 288.3 14.9 279 20.9
2004-05-05 07:23:57 51°19.836 2°48.36 288.9 14.8 281 20.7
2004-05-05 07:24:02 51°19.839 2°48.328 289.1 14.9 279 20.8
2004-05-05 07:24:08 51°19.844 2°48.289 288.6 14.8 280 20.7
2004-05-05 07:24:13 51°19.847 2°48.257 287.9 14.8 279 20.8
2004-05-05 07:24:18 51°19.85 2°48.224 288.2 14.9 280 21
2004-05-05 07:24:22 51°19.853 2°48.198 288.7 15 279 20.9
2004-05-05 07:24:28 51°19.857 2°48.159 289 14.9 280 21
2004-05-05 07:24:32 51°19.86 2°48.133 289.5 15 280 21.1
2004-05-05 07:24:38 51°19.865 2°48.094 289.2 15 280 21.1
2004-05-05 07:24:42 51°19.868 2°48.068 289.3 14.9 280 21.1
2004-05-05 07:24:48 51°19.872 2°48.029 289.1 15 281 21
2004-05-05 07:24:53 51°19.875 2°47.997 289.6 14.9 280 21
2004-05-05 07:24:58 51°19.879 2°47.964 288.9 14.8 280 20.9
2004-05-05 07:25:02 51°19.882 2°47.939 289.1 14.8 281 21
2004-05-05 07:25:08 51°19.887 2°47.899 289.2 14.9 280 21
2004-05-05 07:25:13 51°19.89 2°47.867 289.6 14.9 280 20.9
2004-05-05 07:25:17 51°19.893 2°47.841 288.7 14.9 280 21
2004-05-05 07:25:22 51°19.897 2°47.808 289.1 15 281 20.8
2004-05-05 07:25:28 51°19.902 2°47.769 289.5 14.9 281 20.7
2004-05-05 07:25:32 51°19.905 2°47.744 289.7 14.9 281 20.8
2004-05-05 07:25:38 51°19.91 2°47.705 289.9 14.9 280 20.9
2004-05-05 07:25:42 51°19.913 2°47.679 289.7 14.9 281 20.8
2004-05-05 07:25:48 51°19.917 2°47.639 290 15 280 20.7
2004-05-05 07:25:53 51°19.921 2°47.607 289.5 14.9 281 20.7
2004-05-05 07:25:57 51°19.924 2°47.581 289.8 15 280 20.7
2004-05-05 07:26:02 51°19.928 2°47.548 289.6 15 281 20.5
2004-05-05 07:26:08 51°19.932 2°47.509 289.8 14.9 280 20.4
2004-05-05 07:26:13 51°19.936 2°47.477 289.6 15.1 281 20.5
2004-05-05 07:26:18 51°19.94 2°47.444 289.7 15 281 20.1
2004-05-05 07:26:22 51°19.944 2°47.418 289.9 15 281 20.2
2004-05-05 07:26:28 51°19.948 2°47.379 290 15 280 20
2004-05-05 07:26:32 51°19.951 2°47.353 289.7 15 281 20.2
2004-05-05 07:26:38 51°19.955 2°47.313 289.4 15 280 20
2004-05-05 07:26:42 51°19.959 2°47.287 289.7 15 282 19.9
2004-05-05 07:26:48 51°19.963 2°47.248 289.6 15.1 280 19.6
2004-05-05 07:26:52 51°19.966 2°47.222 290.3 15.1 281 19.5
2004-05-05 07:26:58 51°19.971 2°47.182 289.9 15.1 280 19.3
2004-05-05 07:27:01 51°19.973 2°47.162 289.5 15.1 280 19.2
2004-05-05 07:27:08 51°19.979 2°47.116 289.5 15.1 281 19.2
2004-05-05 07:27:12 51°19.982 2°47.09 289.5 15.2 280 17.4
2004-05-05 07:27:18 51°19.986 2°47.05 289.6 15.2 280 18.7
2004-05-05 07:27:22 51°19.989 2°47.024 289.4 15.1 281 18.4
2004-05-05 07:27:28 51°19.994 2°46.985 289.7 15.1 281 18.5
2004-05-05 07:27:33 51°19.998 2°46.952 290.3 15 282 18.6
2004-05-05 07:27:38 51°20.003 2°46.92 290.7 15 282 18.2
2004-05-05 07:27:42 51°20.006 2°46.893 290.6 15 281 17.5
2004-05-05 07:27:48 51°20.011 2°46.854 290.9 15 282 15
2004-05-05 07:27:53 51°20.015 2°46.821 290.7 15 281 17
2004-05-05 07:27:58 51°20.019 2°46.789 290.8 15 282 15.9
2004-05-05 07:28:01 51°20.021 2°46.769 290.3 15 280 17
2004-05-05 07:28:08 51°20.027 2°46.723 289.8 15.1 281 16.7
2004-05-05 07:28:13 51°20.031 2°46.691 290.3 15 281 15.7
2004-05-05 07:28:18 51°20.035 2°46.658 290.1 15 281 15.4
2004-05-05 07:28:22 51°20.039 2°46.632 290.6 15.1 281 15
2004-05-05 07:28:28 51°20.043 2°46.593 290.2 15 281 14.1
2004-05-05 07:28:32 51°20.046 2°46.567 289.3 14.9 282 14.7
2004-05-05 07:28:38 51°20.05 2°46.528 290.1 14.9 280 15.2
2004-05-05 07:28:42 51°20.054 2°46.502 289.4 14.9 282 13.6
2004-05-05 07:28:48 51°20.058 2°46.463 290.3 15 282 13.8
2004-05-05 07:28:53 51°20.063 2°46.431 289.8 14.8 283 12.8
2004-05-05 07:28:58 51°20.068 2°46.399 291 14.8 283 14
2004-05-05 07:29:02 51°20.072 2°46.374 293 14.9 285 14.4
2004-05-05 07:29:08 51°20.08 2°46.336 295.1 14.8 287 13.7
2004-05-05 07:29:13 51°20.087 2°46.305 296.3 14.9 288 13.3
2004-05-05 07:29:17 51°20.092 2°46.28 298.5 14.8 290 10.6
2004-05-05 07:29:23 51°20.1 2°46.243 298.1 14.8 287 12.9
2004-05-05 07:29:28 51°20.107 2°46.212 298.4 14.6 290 14
2004-05-05 07:29:32 51°20.113 2°46.188 299 14.8 291 12.9
2004-05-05 07:29:38 51°20.122 2°46.151 300.2 14.9 291 14.3
2004-05-05 07:29:42 51°20.127 2°46.127 300.8 14.8 291 12.2
2004-05-05 07:29:48 51°20.136 2°46.09 300.9 14.8 291 13.1
2004-05-05 07:29:52 51°20.142 2°46.065 299.3 14.8 289 13.8
2004-05-05 07:29:58 51°20.15 2°46.028 299.2 14.8 289 14.3
2004-05-05 07:30:02 51°20.155 2°46.002 298.7 14.9 289 14.8
2004-05-05 07:30:07 51°20.162 2°45.971 298 14.9 289 15
2004-05-05 07:30:13 51°20.169 2°45.934 297.6 14.9 288 13.6
2004-05-05 07:30:18 51°20.176 2°45.903 297.1 14.9 288 14
2004-05-05 07:30:22 51°20.181 2°45.878 297.6 14.8 289 14.1
2004-05-05 07:30:28 51°20.188 2°45.84 297.1 14.9 288 14.6
2004-05-05 07:30:33 51°20.195 2°45.808 296.8 15 288 15
2004-05-05 07:30:38 51°20.201 2°45.777 296.9 15 288 14.5
2004-05-05 07:30:42 51°20.206 2°45.751 297.5 15.1 289 14
2004-05-05 07:30:48 51°20.213 2°45.712 296.3 15.2 286 12.9
2004-05-05 07:30:52 51°20.219 2°45.687 296.9 15.2 288 13.6
2004-05-05 07:30:58 51°20.226 2°45.648 296.9 15.3 285 17.1
2004-05-05 07:31:02 51°20.231 2°45.622 296.3 15.3 288 18.6
2004-05-05 07:31:08 51°20.238 2°45.583 296.5 15.3 287 19.5
2004-05-05 07:31:13 51°20.245 2°45.551 296.9 15.3 288 19.9
2004-05-05 07:31:18 51°20.25 2°45.518 296.1 15.3 284 20.3
2004-05-05 07:31:21 51°20.253 2°45.498 293.5 15.3 284 20.8
2004-05-05 07:31:28 51°20.26 2°45.452 292.3 15.4 283 20.7
2004-05-05 07:31:32 51°20.264 2°45.425 291.5 15.3 283 20.8
2004-05-05 07:31:37 51°20.268 2°45.392 291.5 15.2 283 21.2
2004-05-05 07:31:42 51°20.273 2°45.359 290.9 15.2 282 21.3
2004-05-05 07:31:48 51°20.279 2°45.32 291.3 15.2 283 21.9
2004-05-05 07:31:53 51°20.283 2°45.287 290.9 15.3 282 21.4
2004-05-05 07:31:58 51°20.287 2°45.254 290.3 15.4 282 22
2004-05-05 07:32:02 51°20.291 2°45.227 290.3 15.3 282 22.4
2004-05-05 07:32:08 51°20.296 2°45.187 290.1 15.3 283 22.7
2004-05-05 07:32:13 51°20.301 2°45.154 290.1 15.2 283 22.5
2004-05-05 07:32:18 51°20.306 2°45.121 290.9 15.2 282 22.2
2004-05-05 07:32:22 51°20.31 2°45.095 291.2 15.2 283 22.7
2004-05-05 07:32:28 51°20.315 2°45.056 291 15.2 283 23.1
2004-05-05 07:32:33 51°20.32 2°45.023 290.9 15.1 284 23.1
2004-05-05 07:32:38 51°20.325 2°44.991 291 15.2 282 23.2
2004-05-05 07:32:42 51°20.329 2°44.964 291.4 15.2 285 23.1
2004-05-05 07:32:48 51°20.334 2°44.925 291.3 15.1 282 23.4
2004-05-05 07:32:53 51°20.339 2°44.892 290.9 15.1 284 23.6
2004-05-05 07:32:58 51°20.344 2°44.86 291.4 15.2 284 23.8
2004-05-05 07:33:02 51°20.348 2°44.834 291.6 15.2 284 23.9
2004-05-05 07:33:08 51°20.354 2°44.795 291.9 15.1 284 24.2
2004-05-05 07:33:13 51°20.358 2°44.762 291.2 15.2 283 24.3
2004-05-05 07:33:18 51°20.363 2°44.729 290.5 15.2 283 24.5
2004-05-05 07:33:22 51°20.367 2°44.703 290.7 15.2 284 24.5
2004-05-05 07:33:28 51°20.372 2°44.663 290.8 15.2 282 24.2
2004-05-05 07:33:32 51°20.376 2°44.637 290.9 15.2 284 24.1
2004-05-05 07:33:38 51°20.381 2°44.598 290.7 15.2 281 24.6
2004-05-05 07:33:42 51°20.386 2°44.572 291 15.1 285 24.7
2004-05-05 07:33:48 51°20.391 2°44.533 292 15.1 282 24.9
2004-05-05 07:33:53 51°20.396 2°44.5 291.6 15 284 25.3
2004-05-05 07:33:58 51°20.401 2°44.468 291.1 15.1 283 25.6
2004-05-05 07:34:02 51°20.405 2°44.442 291 15 284 25.6
2004-05-05 07:34:08 51°20.41 2°44.403 291.3 15 284 25.8
2004-05-05 07:34:13 51°20.415 2°44.371 291.1 14.8 284 25.9
2004-05-05 07:34:18 51°20.42 2°44.339 291.1 14.8 283 25.9
2004-05-05 07:34:22 51°20.424 2°44.313 291.7 14.9 284 26.1
2004-05-05 07:34:28 51°20.428 2°44.275 291.3 14.9 281 25.8
2004-05-05 07:34:33 51°20.433 2°44.243 290.8 14.7 282 25.8
2004-05-05 07:34:38 51°20.437 2°44.211 291.3 14.8 283 26
2004-05-05 07:34:42 51°20.441 2°44.185 290.8 14.8 282 26
2004-05-05 07:34:48 51°20.446 2°44.147 289.9 14.8 281 26.1
2004-05-05 07:34:53 51°20.45 2°44.114 291.2 14.8 280 26.2
2004-05-05 07:34:58 51°20.454 2°44.082 290 14.9 281 26.4
2004-05-05 07:35:02 51°20.457 2°44.056 290.3 14.9 282 26.4
2004-05-05 07:35:08 51°20.463 2°44.018 290.6 14.9 282 26.5
2004-05-05 07:35:12 51°20.466 2°43.992 290.6 14.8 283 26.5
2004-05-05 07:35:18 51°20.472 2°43.953 291.1 14.8 283 26.5
2004-05-05 07:35:22 51°20.476 2°43.928 291.2 14.8 284 26.4
2004-05-05 07:35:28 51°20.481 2°43.89 292.5 14.9 283 26.4
2004-05-05 07:35:33 51°20.486 2°43.858 291.8 14.8 284 26.2
2004-05-05 07:35:38 51°20.49 2°43.826 291.2 14.8 282 26.1
2004-05-05 07:35:42 51°20.493 2°43.8 291.4 14.8 282 26.1
2004-05-05 07:35:48 51°20.498 2°43.762 291.1 14.8 281 26.3
2004-05-05 07:35:52 51°20.502 2°43.736 291.6 14.8 283 26.1
2004-05-05 07:35:58 51°20.507 2°43.698 291.7 14.7 282 26
2004-05-05 07:36:02 51°20.511 2°43.672 292.4 14.8 282 26
2004-05-05 07:36:08 51°20.516 2°43.634 291.8 14.8 282 26.1
2004-05-05 07:36:13 51°20.52 2°43.602 291.8 14.8 281 25.9
2004-05-05 07:36:18 51°20.525 2°43.57 292.3 14.8 283 25.8
2004-05-05 07:36:22 51°20.528 2°43.544 292.6 14.8 282 25.5
2004-05-05 07:36:28 51°20.533 2°43.506 292.2 14.8 283 25.4
2004-05-05 07:36:33 51°20.538 2°43.473 292.6 15 282 24.9
2004-05-05 07:36:38 51°20.542 2°43.441 292.6 14.9 283 25.5
2004-05-05 07:36:42 51°20.546 2°43.415 291.8 15 282 25.3
2004-05-05 07:36:48 51°20.551 2°43.376 292.7 15 282 24.8
2004-05-05 07:36:53 51°20.556 2°43.344 293.1 15 283 24.7
2004-05-05 07:36:58 51°20.56 2°43.311 292.6 15 282 24.3
2004-05-05 07:37:02 51°20.564 2°43.286 291.8 14.8 284 24.1
2004-05-05 07:37:08 51°20.569 2°43.247 293.2 15 284 24
2004-05-05 07:37:12 51°20.573 2°43.221 292.5 14.9 283 23.3
2004-05-05 07:37:17 51°20.578 2°43.189 293.1 14.9 283 23.3
2004-05-05 07:37:22 51°20.582 2°43.156 291.9 15 283 23
2004-05-05 07:37:28 51°20.587 2°43.117 291.8 15 283 23.1
2004-05-05 07:37:33 51°20.592 2°43.085 291.7 14.9 283 23.2
2004-05-05 07:37:38 51°20.596 2°43.053 292.3 14.9 281 23.1
2004-05-05 07:37:42 51°20.6 2°43.027 292.1 14.8 283 23
2004-05-05 07:37:48 51°20.605 2°42.988 292.6 14.9 283 23
2004-05-05 07:37:53 51°20.61 2°42.956 292.4 14.9 283 20
2004-05-05 07:37:58 51°20.614 2°42.924 292.6 14.9 283 20.3
2004-05-05 07:38:02 51°20.618 2°42.899 292.7 14.9 283 21.1
2004-05-05 07:38:08 51°20.624 2°42.86 292.3 15 282 21.4
2004-05-05 07:38:13 51°20.628 2°42.827 293.2 14.9 282 21.1
2004-05-05 07:38:18 51°20.632 2°42.795 292.4 15 283 17.9
2004-05-05 07:38:22 51°20.636 2°42.769 292.2 14.9 283 19.5
2004-05-05 07:38:28 51°20.642 2°42.731 292.7 14.9 283 20.5
2004-05-05 07:38:33 51°20.645 2°42.698 292.5 14.9 280 20.2
2004-05-05 07:38:38 51°20.65 2°42.666 290.9 14.8 283 19.9
2004-05-05 07:38:42 51°20.653 2°42.64 291.5 14.8 282 20.6
2004-05-05 07:38:47 51°20.658 2°42.609 291.7 14.7 283 18.3
2004-05-05 07:38:53 51°20.663 2°42.57 293.3 14.9 282 18.2
2004-05-05 07:38:58 51°20.668 2°42.539 291.9 14.9 282 19.8
2004-05-05 07:39:02 51°20.672 2°42.513 292.9 14.8 285 20.3
2004-05-05 07:39:08 51°20.678 2°42.475 294.1 14.9 283 20.6
2004-05-05 07:39:13 51°20.683 2°42.443 292.8 14.8 285 20.2
2004-05-05 07:39:18 51°20.687 2°42.411 293.5 14.8 283 17.5
2004-05-05 07:39:22 51°20.69 2°42.386 292.3 14.2 282 16.9
2004-05-05 07:39:28 51°20.695 2°42.352 292.4 13.4 284 17.4
2004-05-05 07:39:32 51°20.698 2°42.331 293.2 12.2 282 17.8
2004-05-05 07:39:37 51°20.701 2°42.306 293.2 11.4 280 17.5
2004-05-05 07:39:42 51°20.702 2°42.283 289.5 10.3 275 17.4
2004-05-05 07:39:48 51°20.702 2°42.258 285.8 9.7 273 17.5
2004-05-05 07:39:53 51°20.702 2°42.239 281.8 8.9 269 16.1
2004-05-05 07:39:58 51°20.701 2°42.22 277.6 8.4 266 16.5
2004-05-05 07:40:02 51°20.7 2°42.206 274.1 8.2 263 17.7
2004-05-05 07:40:08 51°20.696 2°42.186 267.8 7.9 260 18.1
2004-05-05 07:40:13 51°20.693 2°42.171 261.7 7.5 252 18.3
2004-05-05 07:40:18 51°20.689 2°42.156 255.6 7.3 248 18.9
2004-05-05 07:40:21 51°20.686 2°42.148 249.5 7 244 18.4
2004-05-05 07:40:28 51°20.679 2°42.13 242.7 6.8 239 17.1
2004-05-05 07:40:32 51°20.675 2°42.121 237.9 6.4 234 16.1
2004-05-05 07:40:37 51°20.67 2°42.111 230.2 6.2 231 17.3
2004-05-05 07:40:42 51°20.664 2°42.101 224.9 6 227 16.4
2004-05-05 07:40:48 51°20.657 2°42.09 219.9 5.7 224 17.5
2004-05-05 07:40:53 51°20.652 2°42.083 214.4 5.4 218 17.3
2004-05-05 07:40:58 51°20.646 2°42.076 208.2 5.3 216 17.8
2004-05-05 07:41:02 51°20.641 2°42.072 201.5 4.9 209 17.9
2004-05-05 07:41:08 51°20.634 2°42.067 194.9 4.8 207 18.2
2004-05-05 07:41:12 51°20.629 2°42.065 188.7 4.5 199 18
2004-05-05 07:41:18 51°20.622 2°42.062 183.6 4.3 194 18.3
2004-05-05 07:41:22 51°20.618 2°42.062 175.5 4 186 18.3
2004-05-05 07:41:27 51°20.613 2°42.062 168.4 3.8 182 18.2
2004-05-05 07:41:33 51°20.607 2°42.063 161.4 3.5 174 18
2004-05-05 07:41:37 51°20.603 2°42.064 153.8 3.4 169 18.2
2004-05-05 07:41:42 51°20.599 2°42.066 148 3 160 18.2
2004-05-05 07:41:48 51°20.595 2°42.07 139.3 3 156 18.1
2004-05-05 07:41:53 51°20.592 2°42.074 132 2.7 144 18
2004-05-05 07:41:58 51°20.59 2°42.078 124.6 2.4 133 17.8
2004-05-05 07:42:02 51°20.588 2°42.082 117.7 2.4 125 17.7
2004-05-05 07:42:08 51°20.587 2°42.088 108.6 2.4 114 17.7
2004-05-05 07:42:13 51°20.586 2°42.093 100.8 2.3 103 17.8
2004-05-05 07:42:18 51°20.587 2°42.098 93.7 2.3 92 18.1
2004-05-05 07:42:22 51°20.587 2°42.103 87 2.4 80 17.7
2004-05-05 07:42:28 51°20.589 2°42.11 82.6 2.7 76 17.6
2004-05-05 07:42:33 51°20.59 2°42.116 78.8 3 72 17.9
2004-05-05 07:42:38 51°20.592 2°42.123 75.7 3.1 66 17.5
2004-05-05 07:42:42 51°20.594 2°42.129 73.3 3.5 63 16.5
2004-05-05 07:42:48 51°20.597 2°42.137 70.8 3.7 62 18
2004-05-05 07:42:53 51°20.6 2°42.145 68.2 4 61 18.1
2004-05-05 07:42:58 51°20.603 2°42.153 67.5 4.2 58 17.7
2004-05-05 07:43:02 51°20.605 2°42.161 68.5 4.3 64 17
2004-05-05 07:43:08 51°20.608 2°42.171 70.9 4.4 63 16.7
2004-05-05 07:43:13 51°20.611 2°42.18 72.5 4.6 65 15.9
2004-05-05 07:43:18 51°20.613 2°42.19 73.1 4.7 67 17.4
2004-05-05 07:43:22 51°20.615 2°42.198 73 4.8 67 18.2
2004-05-05 07:43:28 51°20.619 2°42.21 73 4.9 65 18.4
2004-05-05 07:43:32 51°20.621 2°42.218 71.9 5 65 18.6
2004-05-05 07:43:38 51°20.625 2°42.23 71 5 63 18.3
2004-05-05 07:43:42 51°20.628 2°42.238 70.9 5.1 66 18
2004-05-05 07:43:48 51°20.631 2°42.251 70.4 5.2 66 18
2004-05-05 07:43:53 51°20.635 2°42.261 71.4 5.3 63 17.7
2004-05-05 07:43:58 51°20.637 2°42.272 71.2 5.3 67 17
2004-05-05 07:44:00 51°20.639 2°42.276 72 5.3 64 16.9
2004-05-05 07:44:08 51°20.644 2°42.294 71.4 5.4 64 17.2
2004-05-05 07:44:13 51°20.648 2°42.305 71.1 5.4 64 17.5
2004-05-05 07:44:18 51°20.651 2°42.315 70 5.4 62 17.9
2004-05-05 07:44:22 51°20.654 2°42.323 68.2 5.4 62 18
2004-05-05 07:44:28 51°20.658 2°42.335 66.7 5.2 59 18.4
2004-05-05 07:44:33 51°20.662 2°42.343 66.1 4.7 57 18.3
2004-05-05 07:44:37 51°20.664 2°42.351 66.5 4.5 63 18.1
2004-05-05 07:44:42 51°20.666 2°42.359 70.6 4.1 68 17.9
2004-05-05 07:44:48 51°20.667 2°42.368 75.8 3.6 81 18
2004-05-05 07:44:53 51°20.667 2°42.375 82.2 3.3 83 18.2
2004-05-05 07:44:58 51°20.667 2°42.382 87.1 3.2 90 18.1
2004-05-05 07:45:00 51°20.667 2°42.385 92.2 3 97 17.9
2004-05-05 07:45:08 51°20.665 2°42.394 96 2.8 101 17.5
2004-05-05 07:45:13 51°20.664 2°42.399 100.2 2.7 112 18
2004-05-05 07:45:18 51°20.662 2°42.404 104.6 2.5 118 17.9
2004-05-05 07:45:22 51°20.66 2°42.407 108.8 2.4 124 17.6
2004-05-05 07:45:28 51°20.658 2°42.412 113.3 2.4 131 17.1
2004-05-05 07:45:33 51°20.655 2°42.416 116 2.4 135 16.8
2004-05-05 07:45:37 51°20.653 2°42.419 119.7 2.5 138 16.6
2004-05-05 07:45:42 51°20.65 2°42.423 123.9 2.5 143 16.6
2004-05-05 07:45:48 51°20.646 2°42.426 128.5 2.6 147 16.7
2004-05-05 07:45:53 51°20.643 2°42.429 133 2.9 153 16.8
2004-05-05 07:45:58 51°20.638 2°42.431 137.1 3.1 158 17
2004-05-05 07:46:03 51°20.634 2°42.434 142.9 3.4 164 17.3
2004-05-05 07:46:08 51°20.629 2°42.435 146.8 3.6 168 17.4
2004-05-05 07:46:12 51°20.625 2°42.436 152.6 3.7 173 17.9
2004-05-05 07:46:17 51°20.619 2°42.437 158.1 3.9 176 18
2004-05-05 07:46:22 51°20.613 2°42.437 164 4.1 178 18.8
2004-05-05 07:46:28 51°20.606 2°42.435 170.2 4.3 185 18.9
2004-05-05 07:46:32 51°20.601 2°42.433 174.9 4.6 192 19.3
2004-05-05 07:46:38 51°20.594 2°42.429 181.4 4.7 197 19.7
2004-05-05 07:46:42 51°20.589 2°42.426 188.2 4.9 203 20
2004-05-05 07:46:48 51°20.581 2°42.419 195.2 5 209 19.7
2004-05-05 07:46:53 51°20.576 2°42.412 202.2 5.2 216 18.6
2004-05-05 07:46:58 51°20.571 2°42.403 211.2 5.2 222 18.9
2004-05-05 07:47:02 51°20.567 2°42.396 219.6 5.4 230 17.6
2004-05-05 07:47:08 51°20.562 2°42.384 228 5.4 232 17.7
2004-05-05 07:47:13 51°20.558 2°42.373 236.9 5.6 243 18.8
2004-05-05 07:47:18 51°20.556 2°42.361 245.5 5.6 248 19.2
2004-05-05 07:47:22 51°20.554 2°42.351 254 5.7 254 19.2
2004-05-05 07:47:28 51°20.553 2°42.336 261.2 5.7 260 19.1
2004-05-05 07:47:33 51°20.553 2°42.323 269.8 5.8 266 19.2
2004-05-05 07:47:38 51°20.553 2°42.31 277.7 5.8 271 18.8
2004-05-05 07:47:42 51°20.554 2°42.3 284.7 5.8 275 17.4
2004-05-05 07:47:48 51°20.556 2°42.285 292.5 5.8 283 17.5
2004-05-05 07:47:53 51°20.559 2°42.274 300.2 5.4 290 17.4
2004-05-05 07:47:58 51°20.561 2°42.264 308.7 5.2 292 17.1
2004-05-05 07:48:02 51°20.564 2°42.256 313.5 4.8 294 17.4
2004-05-05 07:48:08 51°20.567 2°42.246 320.5 4.7 298 18
2004-05-05 07:48:13 51°20.571 2°42.238 324 4.5 302 17.7
2004-05-05 07:48:18 51°20.574 2°42.23 329.1 4.3 307 17.9
2004-05-05 07:48:21 51°20.577 2°42.226 334.4 4.2 308 18.1
2004-05-05 07:48:28 51°20.582 2°42.217 338.9 4 313 18.3
2004-05-05 07:48:33 51°20.586 2°42.211 343.6 3.8 318 18.5
2004-05-05 07:48:36 51°20.588 2°42.209 348.2 3.6 322 18.4
2004-05-05 07:48:41 51°20.592 2°42.204 352.6 3.6 323 18.5
2004-05-05 07:48:48 51°20.597 2°42.198 357.5 3.3 327 18.3
2004-05-05 07:48:53 51°20.601 2°42.196 2.3 3.2 333 18.2
2004-05-05 07:48:58 51°20.605 2°42.194 8 3 338 17.9
2004-05-05 07:49:02 51°20.608 2°42.192 12 2.8 342 17.8
2004-05-05 07:49:08 51°20.612 2°42.191 18.6 2.6 349 17.9
2004-05-05 07:49:13 51°20.616 2°42.19 23.2 2.5 351 18
2004-05-05 07:49:18 51°20.619 2°42.19 29.7 2.2 356 17.8
2004-05-05 07:49:22 51°20.621 2°42.19 35.4 2.2 2 18
2004-05-05 07:49:28 51°20.624 2°42.191 39.8 2 3 18.2
2004-05-05 07:49:32 51°20.626 2°42.192 45 1.8 13 18.3
2004-05-05 07:49:38 51°20.628 2°42.194 49.8 1.8 19 18.4
2004-05-05 07:49:41 51°20.63 2°42.195 55.3 1.7 22 18.2
2004-05-05 07:49:48 51°20.632 2°42.197 59.6 1.5 30 18.5
2004-05-05 07:49:53 51°20.634 2°42.199 63.1 1.4 43 18.5
2004-05-05 07:49:58 51°20.635 2°42.201 66.3 1.4 43 18.6
2004-05-05 07:50:02 51°20.636 2°42.203 68.4 1.4 52 18.4
2004-05-05 07:50:08 51°20.637 2°42.206 70.1 1.5 51 18.3
2004-05-05 07:50:13 51°20.638 2°42.209 72.3 1.5 57 18.2
2004-05-05 07:50:17 51°20.639 2°42.211 74 1.5 62 18.4
2004-05-05 07:50:22 51°20.64 2°42.214 75.6 1.4 66 18.1
2004-05-05 07:50:28 51°20.641 2°42.218 76.9 1.4 73 18.7
2004-05-05 07:50:33 51°20.641 2°42.221 78.5 1.5 72 18.6
2004-05-05 07:50:38 51°20.642 2°42.224 80.4 1.5 69 18.3
2004-05-05 07:50:42 51°20.642 2°42.227 80.6 1.5 73 18.1
2004-05-05 07:50:48 51°20.643 2°42.231 81 1.5 72 18.5
2004-05-05 07:50:53 51°20.644 2°42.234 81.4 1.5 74 18.3
2004-05-05 07:50:58 51°20.644 2°42.238 81.4 1.5 79 18.1
2004-05-05 07:51:02 51°20.644 2°42.241 81.3 1.6 76 17.7
2004-05-05 07:51:08 51°20.645 2°42.245 81 1.6 77 17.7
2004-05-05 07:51:13 51°20.646 2°42.248 80.6 1.6 74 18
2004-05-05 07:51:18 51°20.646 2°42.252 80.2 1.7 77 17.7
2004-05-05 07:51:22 51°20.647 2°42.255 79.6 1.6 71 17.4
2004-05-05 07:51:28 51°20.648 2°42.259 79.7 1.7 75 17.2
2004-05-05 07:51:33 51°20.649 2°42.263 79 1.8 66 17.1
2004-05-05 07:51:38 51°20.65 2°42.267 78.7 1.8 67 17.6
2004-05-05 07:51:42 51°20.651 2°42.27 77.8 1.8 66 17.3
2004-05-05 07:51:48 51°20.652 2°42.274 77.3 1.8 63 16.9
2004-05-05 07:51:53 51°20.653 2°42.278 76.7 1.8 68 16.7
2004-05-05 07:51:58 51°20.654 2°42.282 76.6 1.9 61 17.5
2004-05-05 07:52:02 51°20.655 2°42.285 76.4 1.8 65 17.3
2004-05-05 07:52:08 51°20.656 2°42.29 75.9 1.8 66 17
2004-05-05 07:52:12 51°20.657 2°42.293 76.2 1.9 68 17.3
2004-05-05 07:52:18 51°20.658 2°42.297 76.4 1.9 64 17.3
2004-05-05 07:52:22 51°20.659 2°42.3 76.5 1.9 71 18
2004-05-05 07:52:28 51°20.66 2°42.305 76.1 1.9 67 17.8
2004-05-05 07:52:33 51°20.661 2°42.309 76 1.9 65 17.8
2004-05-05 07:52:37 51°20.662 2°42.312 75.2 1.8 66 18.3
2004-05-05 07:52:41 51°20.663 2°42.314 74.3 1.8 63 17.9
2004-05-05 07:52:48 51°20.665 2°42.32 73.5 1.8 61 17.7
2004-05-05 07:52:53 51°20.666 2°42.323 72.6 1.8 60 17.8
2004-05-05 07:52:58 51°20.667 2°42.327 71.8 1.9 58 18.4
2004-05-05 07:53:02 51°20.668 2°42.329 71.1 1.9 58 18.5
2004-05-05 07:53:08 51°20.67 2°42.333 71 1.9 56 18.6
2004-05-05 07:53:13 51°20.672 2°42.337 70.3 1.9 56 18.2
2004-05-05 07:53:18 51°20.673 2°42.34 70 1.9 56 18.1
2004-05-05 07:53:22 51°20.674 2°42.343 69.9 1.9 54 18.4
2004-05-05 07:53:28 51°20.676 2°42.348 70 1.9 54 18.1
2004-05-05 07:53:33 51°20.678 2°42.351 70 2 61 17.9
2004-05-05 07:53:38 51°20.679 2°42.355 70.1 2 56 18.4
2004-05-05 07:53:41 51°20.68 2°42.357 70.4 1.9 58 18.2
2004-05-05 07:53:48 51°20.682 2°42.362 70.9 2 62 17.8
2004-05-05 07:53:52 51°20.683 2°42.366 72.7 1.9 69 17.9
2004-05-05 07:53:58 51°20.684 2°42.371 75.2 2 68 18
2004-05-05 07:54:02 51°20.685 2°42.374 77.4 2 74 17.9
2004-05-05 07:54:08 51°20.685 2°42.379 80.3 1.9 74 17.5
2004-05-05 07:54:12 51°20.685 2°42.382 83.1 1.8 79 17.5
2004-05-05 07:54:18 51°20.685 2°42.387 85.8 1.9 94 17.3
2004-05-05 07:54:22 51°20.685 2°42.391 89.3 1.8 94 17.4
2004-05-05 07:54:28 51°20.684 2°42.396 92 1.9 101 17
2004-05-05 07:54:32 51°20.684 2°42.399 94.5 1.9 103 16.6
2004-05-05 07:54:37 51°20.683 2°42.403 96.4 1.9 104 16.2
2004-05-05 07:54:40 51°20.683 2°42.405 98.7 1.9 109 16.4
2004-05-05 07:54:48 51°20.681 2°42.411 100.5 1.9 110 17.1
2004-05-05 07:54:53 51°20.681 2°42.415 100.9 1.8 109 16.9
2004-05-05 07:54:58 51°20.679 2°42.419 100.9 1.8 108 16.5
2004-05-05 07:55:02 51°20.679 2°42.422 101.1 1.8 113 16.3
2004-05-05 07:55:08 51°20.678 2°42.426 100.8 1.8 112 16.6
2004-05-05 07:55:12 51°20.677 2°42.429 100.4 1.7 110 18.1
2004-05-05 07:55:18 51°20.676 2°42.434 100.1 1.8 108 18.7
2004-05-05 07:55:22 51°20.676 2°42.437 100.2 1.7 112 19.2
2004-05-05 07:55:28 51°20.675 2°42.441 99.9 1.8 109 19.5
2004-05-05 07:55:33 51°20.674 2°42.444 99.7 1.7 109 19.8
2004-05-05 07:55:38 51°20.673 2°42.448 99.5 1.8 111 20
2004-05-05 07:55:42 51°20.672 2°42.451 99.5 1.8 110 20.3
2004-05-05 07:55:48 51°20.671 2°42.456 99.8 1.8 115 20.5
2004-05-05 07:55:52 51°20.67 2°42.458 100.6 1.8 114 20.6
2004-05-05 07:55:58 51°20.668 2°42.463 103 1.9 115 20.7
2004-05-05 07:56:02 51°20.667 2°42.467 106 2.2 122 20.6
2004-05-05 07:56:08 51°20.664 2°42.472 110.2 2.4 125 20.6
2004-05-05 07:56:13 51°20.662 2°42.476 115.8 2.6 134 20.5
2004-05-05 07:56:18 51°20.659 2°42.48 120.9 2.8 140 20.5
2004-05-05 07:56:22 51°20.656 2°42.483 126.1 2.9 142 20.7
2004-05-05 07:56:28 51°20.651 2°42.487 131.3 3.2 149 20.7
2004-05-05 07:56:33 51°20.647 2°42.49 136.6 3.3 155 20.7
2004-05-05 07:56:38 51°20.643 2°42.493 141.7 3.5 161 20.5
2004-05-05 07:56:42 51°20.638 2°42.494 146.6 3.6 165 20.7
2004-05-05 07:56:48 51°20.632 2°42.496 151.9 3.8 170 20.9
2004-05-05 07:56:52 51°20.628 2°42.496 156.7 4 177 20.6
2004-05-05 07:56:58 51°20.621 2°42.496 163.3 4.1 181 20.9
2004-05-05 07:57:02 51°20.616 2°42.495 168.9 4.2 185 20.8
2004-05-05 07:57:08 51°20.609 2°42.492 174.7 4.4 187 20.7
2004-05-05 07:57:12 51°20.604 2°42.49 181 4.6 199 20.2
2004-05-05 07:57:18 51°20.597 2°42.484 187.5 4.7 204 19.9
2004-05-05 07:57:22 51°20.592 2°42.48 194.5 4.8 209 19.5
2004-05-05 07:57:28 51°20.586 2°42.473 201.8 4.7 213 16.8
2004-05-05 07:57:33 51°20.581 2°42.466 209.2 4.9 221 17.7
2004-05-05 07:57:38 51°20.576 2°42.457 216.2 5 226 19
2004-05-05 07:57:42 51°20.573 2°42.45 222.4 5.1 235 19.7
2004-05-05 07:57:48 51°20.569 2°42.438 232.2 5.2 241 20.3
2004-05-05 07:57:52 51°20.566 2°42.429 238.4 5.3 244 20
2004-05-05 07:57:58 51°20.563 2°42.416 248.9 5.4 249 18.8
2004-05-05 07:58:02 51°20.562 2°42.407 255.4 5.5 254 18.2
2004-05-05 07:58:08 51°20.561 2°42.392 264.4 5.4 263 17.5
2004-05-05 07:58:13 51°20.561 2°42.38 272.2 5.3 270 17.9
2004-05-05 07:58:18 51°20.562 2°42.369 281.2 5.2 275 18.7
2004-05-05 07:58:22 51°20.563 2°42.36 288.7 5.2 280 18.1
2004-05-05 07:58:28 51°20.566 2°42.347 297.3 5.3 283 18.9
2004-05-05 07:58:33 51°20.568 2°42.335 301.9 5.4 287 18.8
2004-05-05 07:58:38 51°20.571 2°42.323 306.2 5.5 288 19.5
2004-05-05 07:58:41 51°20.573 2°42.317 309.5 5.6 291 19.4
2004-05-05 07:58:48 51°20.578 2°42.301 312.4 5.7 296 17.8
2004-05-05 07:58:53 51°20.581 2°42.289 315.4 6 297 17.3
2004-05-05 07:58:58 51°20.586 2°42.278 317.1 6.1 299 17.7
2004-05-05 07:59:02 51°20.589 2°42.268 319.3 6.1 301 17.2
2004-05-05 07:59:08 51°20.595 2°42.254 321.1 6.1 303 17.7
2004-05-05 07:59:13 51°20.6 2°42.243 321.7 6.4 303 17.7
2004-05-05 07:59:18 51°20.605 2°42.231 321.6 6.6 303 17.8
2004-05-05 07:59:22 51°20.609 2°42.221 321.8 6.6 303 18.3
2004-05-05 07:59:28 51°20.615 2°42.206 322.2 6.7 304 18.2
2004-05-05 07:59:33 51°20.621 2°42.195 322.7 6.8 307 18.1